createdAt,value
2023-05-10T00:00:41.128Z,17.30
2023-05-10T00:03:26.944Z,17.30
2023-05-10T00:06:13.127Z,17.30
2023-05-10T00:08:58.705Z,17.30
2023-05-10T00:11:44.165Z,17.30
2023-05-10T00:14:30.118Z,17.40
2023-05-10T00:17:15.819Z,17.30
2023-05-10T00:20:01.641Z,17.30
2023-05-10T00:22:47.051Z,17.30
2023-05-10T00:25:32.649Z,17.40
2023-05-10T00:28:18.232Z,17.20
2023-05-10T00:31:03.832Z,17.20
2023-05-10T00:33:49.443Z,17.20
2023-05-10T00:36:35.138Z,17.20
2023-05-10T00:39:20.988Z,17.20
2023-05-10T00:42:06.345Z,17.20
2023-05-10T00:44:52.202Z,17.20
2023-05-10T00:47:37.837Z,17.20
2023-05-10T00:50:24.385Z,17.20
2023-05-10T00:53:10.226Z,17.20
2023-05-10T00:55:56.615Z,17.20
2023-05-10T00:58:42.711Z,17.20
2023-05-10T01:01:28.931Z,17.20
2023-05-10T01:04:15.038Z,17.10
2023-05-10T01:07:01.398Z,17.10
2023-05-10T01:09:46.903Z,17.10
2023-05-10T01:12:32.826Z,19.30
2023-05-10T01:15:19.014Z,17.10
2023-05-10T01:18:04.462Z,17.10
2023-05-10T01:20:55.108Z,17.10
2023-05-10T01:23:43.507Z,17.10
2023-05-10T01:26:48.009Z,17.10
2023-05-10T01:30:01.417Z,19.80
2023-05-10T01:33:01.068Z,17.10
2023-05-10T01:35:58.735Z,17.10
2023-05-10T01:38:52.756Z,17.10
2023-05-10T01:41:46.448Z,17.00
2023-05-10T01:44:42.195Z,17.00
2023-05-10T01:47:33.591Z,16.90
2023-05-10T01:50:24.871Z,17.00
2023-05-10T01:53:12.575Z,17.00
2023-05-10T01:55:58.913Z,17.00
2023-05-10T01:58:46.680Z,17.10
2023-05-10T02:01:32.861Z,17.00
2023-05-10T02:04:18.473Z,17.00
2023-05-10T02:07:04.796Z,16.90
2023-05-10T02:09:50.735Z,16.90
2023-05-10T02:12:37.081Z,16.90
2023-05-10T02:15:24.469Z,16.90
2023-05-10T02:18:11.814Z,16.80
2023-05-10T02:20:58.715Z,16.80
2023-05-10T02:23:45.252Z,16.90
2023-05-10T02:26:32.464Z,16.90
2023-05-10T02:29:18.317Z,16.80
2023-05-10T02:32:04.332Z,16.80
2023-05-10T02:34:53.055Z,16.80
2023-05-10T02:37:39.509Z,16.80
2023-05-10T02:40:28.514Z,16.80
2023-05-10T02:43:16.938Z,16.80
2023-05-10T02:46:02.980Z,16.80
2023-05-10T02:48:48.554Z,16.80
2023-05-10T02:51:35.965Z,16.80
2023-05-10T02:54:22.410Z,16.80
2023-05-10T02:57:08.306Z,16.80
2023-05-10T02:59:53.897Z,16.80
2023-05-10T03:02:39.648Z,16.70
2023-05-10T03:05:25.338Z,16.60
2023-05-10T03:08:10.953Z,16.60
2023-05-10T03:11:14.998Z,16.60
2023-05-10T03:14:01.206Z,16.50
2023-05-10T03:16:48.186Z,16.60
2023-05-10T03:19:40.580Z,16.60
2023-05-10T03:22:30.989Z,16.60
2023-05-10T03:25:17.722Z,16.60
2023-05-10T03:28:04.723Z,16.60
2023-05-10T03:30:51.734Z,16.60
2023-05-10T03:33:46.480Z,16.60
2023-05-10T03:36:32.615Z,16.60
2023-05-10T03:39:18.657Z,16.60
2023-05-10T03:42:09.270Z,16.60
2023-05-10T03:44:54.908Z,16.60
2023-05-10T03:47:40.545Z,16.60
2023-05-10T03:50:27.188Z,16.60
2023-05-10T03:53:13.436Z,16.60
2023-05-10T03:55:59.094Z,16.60
2023-05-10T03:58:44.591Z,16.60
2023-05-10T04:01:30.277Z,16.50
2023-05-10T04:04:16.519Z,16.50
2023-05-10T04:07:02.110Z,16.50
2023-05-10T04:09:47.814Z,16.40
2023-05-10T04:12:33.185Z,16.40
2023-05-10T04:15:18.776Z,16.30
2023-05-10T04:18:06.008Z,16.30
2023-05-10T04:20:52.844Z,16.30
2023-05-10T04:23:38.400Z,16.20
2023-05-10T04:26:24.369Z,16.10
2023-05-10T04:29:09.987Z,16.00
2023-05-10T04:31:56.277Z,16.10
2023-05-10T04:34:41.752Z,16.20
2023-05-10T04:37:27.321Z,16.20
2023-05-10T04:40:13.129Z,16.10
2023-05-10T04:42:58.600Z,16.10
2023-05-10T04:45:44.322Z,16.10
2023-05-10T04:48:30.191Z,16.10
2023-05-10T04:51:15.573Z,16.20
2023-05-10T04:54:06.525Z,16.10
2023-05-10T04:56:52.368Z,16.10
2023-05-10T04:59:38.652Z,16.10
2023-05-10T05:02:24.781Z,16.00
2023-05-10T05:05:10.202Z,16.00
2023-05-10T05:07:55.827Z,16.40
2023-05-10T05:10:41.457Z,16.80
2023-05-10T05:13:27.164Z,17.00
2023-05-10T05:16:12.939Z,17.20
2023-05-10T05:18:58.384Z,17.40
2023-05-10T05:21:44.602Z,17.60
2023-05-10T05:24:30.128Z,14.20
2023-05-10T05:27:15.436Z,17.80
2023-05-10T05:30:01.317Z,17.90
2023-05-10T05:32:48.260Z,18.00
2023-05-10T05:35:34.153Z,18.00
2023-05-10T05:38:20.533Z,18.10
2023-05-10T05:41:06.343Z,18.20
2023-05-10T05:43:51.754Z,18.20
2023-05-10T05:46:37.631Z,18.30
2023-05-10T05:49:23.036Z,18.30
2023-05-10T05:52:08.821Z,18.30
2023-05-10T05:54:54.268Z,18.40
2023-05-10T05:57:40.222Z,18.40
2023-05-10T06:00:25.967Z,18.40
2023-05-10T06:03:11.791Z,18.50
2023-05-10T06:05:57.705Z,18.50
2023-05-10T06:08:43.350Z,18.60
2023-05-10T06:11:29.077Z,18.60
2023-05-10T06:14:14.850Z,20.10
2023-05-10T06:17:01.153Z,18.60
2023-05-10T06:19:46.403Z,18.60
2023-05-10T06:22:31.894Z,18.60
2023-05-10T06:25:19.299Z,18.60
2023-05-10T06:28:04.775Z,18.60
2023-05-10T06:30:50.564Z,18.60
2023-05-10T06:33:36.330Z,18.60
2023-05-10T06:36:22.983Z,18.70
2023-05-10T06:39:08.545Z,18.70
2023-05-10T06:41:54.092Z,18.70
2023-05-10T06:44:39.265Z,18.80
2023-05-10T06:47:24.969Z,18.70
2023-05-10T06:50:12.461Z,18.70
2023-05-10T06:52:58.062Z,18.80
2023-05-10T06:55:43.747Z,18.70
2023-05-10T06:58:29.482Z,18.80
2023-05-10T07:01:15.291Z,18.80
2023-05-10T07:04:01.178Z,18.80
2023-05-10T07:06:47.516Z,18.80
2023-05-10T07:09:33.318Z,18.80
2023-05-10T07:12:19.172Z,18.80
2023-05-10T07:15:05.421Z,18.80
2023-05-10T07:17:50.746Z,18.90
2023-05-10T07:20:36.205Z,18.90
2023-05-10T07:23:22.040Z,18.90
2023-05-10T07:26:08.047Z,18.90
2023-05-10T07:28:53.705Z,18.90
2023-05-10T07:31:39.648Z,18.90
2023-05-10T07:34:25.501Z,18.90
2023-05-10T07:37:10.908Z,18.90
2023-05-10T07:39:57.168Z,18.90
2023-05-10T07:42:42.467Z,18.90
2023-05-10T07:45:28.297Z,18.90
2023-05-10T07:48:13.679Z,18.90
2023-05-10T07:50:59.326Z,19.00
2023-05-10T07:53:45.162Z,18.90
2023-05-10T07:56:32.825Z,19.00
2023-05-10T07:59:18.638Z,19.00
2023-05-10T08:02:04.229Z,19.00
2023-05-10T08:04:49.767Z,19.00
2023-05-10T08:07:35.476Z,19.10
2023-05-10T08:10:21.078Z,19.00
2023-05-10T08:13:07.106Z,19.00
2023-05-10T08:15:54.105Z,19.00
2023-05-10T08:18:40.162Z,19.00
2023-05-10T08:21:27.838Z,19.00
2023-05-10T08:24:13.276Z,19.00
2023-05-10T08:26:58.876Z,19.00
2023-05-10T08:29:50.137Z,19.10
2023-05-10T08:32:36.514Z,19.10
2023-05-10T08:35:22.174Z,19.10
2023-05-10T08:38:07.820Z,19.20
2023-05-10T08:40:57.593Z,19.10
2023-05-10T08:43:47.179Z,19.20
2023-05-10T08:46:35.429Z,19.20
2023-05-10T08:49:21.015Z,19.20
2023-05-10T08:52:08.041Z,19.30
2023-05-10T08:54:53.833Z,19.20
2023-05-10T08:57:39.404Z,19.30
2023-05-10T09:00:25.067Z,19.30
2023-05-10T09:03:10.901Z,19.30
2023-05-10T09:05:59.301Z,19.20
2023-05-10T09:08:45.808Z,19.30
2023-05-10T09:11:31.363Z,19.30
2023-05-10T09:14:17.298Z,19.30
2023-05-10T09:17:03.261Z,18.80
2023-05-10T09:19:48.306Z,19.30
2023-05-10T09:22:34.526Z,19.30
2023-05-10T09:25:20.464Z,19.30
2023-05-10T09:28:10.199Z,19.30
2023-05-10T09:30:56.772Z,19.30
2023-05-10T09:33:47.085Z,19.40
2023-05-10T09:36:32.872Z,19.40
2023-05-10T09:39:19.033Z,19.40
2023-05-10T09:42:13.784Z,19.40
2023-05-10T09:45:03.465Z,19.50
2023-05-10T09:47:49.347Z,19.50
2023-05-10T09:50:35.230Z,19.60
2023-05-10T09:53:20.858Z,19.60
2023-05-10T09:56:06.400Z,19.70
2023-05-10T09:59:03.041Z,19.70
2023-05-10T10:01:52.376Z,19.80
2023-05-10T10:04:40.656Z,19.80
2023-05-10T10:07:27.310Z,19.80
2023-05-10T10:10:13.844Z,19.80
2023-05-10T10:12:59.457Z,19.90
2023-05-10T10:15:47.174Z,20.00
2023-05-10T10:18:33.536Z,20.00
2023-05-10T10:21:19.277Z,20.10
2023-05-10T10:24:06.687Z,20.10
2023-05-10T10:26:53.399Z,20.20
2023-05-10T10:30:02.361Z,20.20
2023-05-10T10:32:50.543Z,20.20
2023-05-10T10:35:36.211Z,20.30
2023-05-10T10:38:21.912Z,20.30
2023-05-10T10:41:11.769Z,20.30
2023-05-10T10:44:16.337Z,20.30
2023-05-10T10:47:25.993Z,20.40
2023-05-10T10:50:14.092Z,20.40
2023-05-10T10:53:11.377Z,20.50
2023-05-10T10:56:14.677Z,20.60
2023-05-10T10:59:00.641Z,20.60
2023-05-10T11:01:46.085Z,20.60
2023-05-10T11:04:42.149Z,20.60
2023-05-10T11:07:27.957Z,20.70
2023-05-10T11:10:20.046Z,20.70
2023-05-10T11:13:05.813Z,20.70
2023-05-10T11:15:51.712Z,20.70
2023-05-10T11:18:38.053Z,20.70
2023-05-10T11:21:23.672Z,20.80
2023-05-10T11:24:14.367Z,20.80
2023-05-10T11:27:00.512Z,20.80
2023-05-10T11:29:46.401Z,20.90
2023-05-10T11:32:32.592Z,20.90
2023-05-10T11:35:18.253Z,20.90
2023-05-10T11:38:06.361Z,21.00
2023-05-10T11:40:52.646Z,21.00
2023-05-10T11:43:39.390Z,21.20
2023-05-10T11:46:26.170Z,21.20
2023-05-10T11:49:11.773Z,21.30
2023-05-10T11:52:07.484Z,21.40
2023-05-10T11:54:53.764Z,21.50
2023-05-10T11:57:43.557Z,21.50
2023-05-10T12:00:29.373Z,21.50
2023-05-10T12:03:15.029Z,21.50
2023-05-10T12:06:01.722Z,21.40
2023-05-10T12:08:47.955Z,21.50
2023-05-10T12:11:37.273Z,21.40
2023-05-10T12:14:23.122Z,21.40
2023-05-10T12:17:12.852Z,21.40
2023-05-10T12:20:17.108Z,21.30
2023-05-10T12:23:06.458Z,21.30
2023-05-10T12:25:52.401Z,21.30
2023-05-10T12:28:38.326Z,21.30
2023-05-10T12:31:23.757Z,21.30
2023-05-10T12:34:09.348Z,21.30
2023-05-10T12:36:55.537Z,21.40
2023-05-10T12:39:42.373Z,21.40
2023-05-10T12:42:27.936Z,21.40
2023-05-10T12:45:13.594Z,21.50
2023-05-10T12:47:59.606Z,21.50
2023-05-10T12:50:45.191Z,21.50
2023-05-10T12:53:30.834Z,21.60
2023-05-10T12:56:16.283Z,21.60
2023-05-10T12:59:01.636Z,21.70
2023-05-10T13:01:47.447Z,21.70
2023-05-10T13:04:32.962Z,21.80
2023-05-10T13:07:18.661Z,21.90
2023-05-10T13:10:04.272Z,22.10
2023-05-10T13:12:49.885Z,22.30
2023-05-10T13:15:35.503Z,22.50
2023-05-10T13:18:21.493Z,22.70
2023-05-10T13:21:07.086Z,22.80
2023-05-10T13:23:52.848Z,22.80
2023-05-10T13:26:38.389Z,22.70
2023-05-10T13:29:24.170Z,22.70
2023-05-10T13:32:09.662Z,22.60
2023-05-10T13:34:55.822Z,22.50
2023-05-10T13:37:41.545Z,22.40
2023-05-10T13:40:27.149Z,22.30
2023-05-10T13:43:12.849Z,22.20
2023-05-10T13:45:58.515Z,22.20
2023-05-10T13:48:43.928Z,22.10
2023-05-10T13:51:29.635Z,22.10
2023-05-10T13:54:15.194Z,22.00
2023-05-10T13:57:01.040Z,22.00
2023-05-10T13:59:46.376Z,22.00
2023-05-10T14:02:32.384Z,22.00
2023-05-10T14:05:19.277Z,22.00
2023-05-10T14:08:08.497Z,21.90
2023-05-10T14:10:53.895Z,21.90
2023-05-10T14:13:39.958Z,21.90
2023-05-10T14:16:25.975Z,21.90
2023-05-10T14:19:11.690Z,21.90
2023-05-10T14:21:57.448Z,24.70
2023-05-10T14:24:44.446Z,21.90
2023-05-10T14:27:31.236Z,21.90
2023-05-10T14:30:16.982Z,21.90
2023-05-10T14:33:03.278Z,21.90
2023-05-10T14:35:49.335Z,22.00
2023-05-10T14:38:34.901Z,22.00
2023-05-10T14:41:20.688Z,22.00
2023-05-10T14:44:06.375Z,22.00
2023-05-10T14:46:51.980Z,22.10
2023-05-10T14:49:38.152Z,22.10
2023-05-10T14:52:23.904Z,22.10
2023-05-10T14:55:09.682Z,22.10
2023-05-10T14:57:55.413Z,22.10
2023-05-10T15:00:41.365Z,22.10
2023-05-10T15:03:27.874Z,22.10
2023-05-10T15:06:15.089Z,22.10
2023-05-10T15:09:01.246Z,22.10
2023-05-10T15:11:46.931Z,22.10
2023-05-10T15:14:33.900Z,22.10
2023-05-10T15:17:19.301Z,22.10
2023-05-10T15:20:05.358Z,22.00
2023-05-10T15:22:50.859Z,22.10
2023-05-10T15:25:38.205Z,22.00
2023-05-10T15:28:23.714Z,22.00
2023-05-10T15:31:09.388Z,22.00
2023-05-10T15:34:00.091Z,21.90
2023-05-10T15:36:46.360Z,20.00
2023-05-10T15:39:31.676Z,21.90
2023-05-10T15:42:17.529Z,21.90
2023-05-10T15:45:03.672Z,21.90
2023-05-10T15:47:49.135Z,21.80
2023-05-10T15:50:34.344Z,21.80
2023-05-10T15:53:19.925Z,21.80
2023-05-10T15:56:05.980Z,21.80
2023-05-10T15:58:51.746Z,21.80
2023-05-10T16:01:37.499Z,21.80
2023-05-10T16:04:23.335Z,21.80
2023-05-10T16:07:08.934Z,21.80
2023-05-10T16:09:54.552Z,21.80
2023-05-10T16:12:40.507Z,21.70
2023-05-10T16:15:26.613Z,21.70
2023-05-10T16:18:12.585Z,21.70
2023-05-10T16:20:59.300Z,21.70
2023-05-10T16:23:46.470Z,21.70
2023-05-10T16:26:32.054Z,21.60
2023-05-10T16:29:17.364Z,21.60
2023-05-10T16:32:03.073Z,21.60
2023-05-10T16:34:50.259Z,21.60
2023-05-10T16:37:35.956Z,21.60
2023-05-10T16:40:21.753Z,21.60
2023-05-10T16:43:07.828Z,21.60
2023-05-10T16:45:53.345Z,21.60
2023-05-10T16:48:39.030Z,21.60
2023-05-10T16:51:24.758Z,21.60
2023-05-10T16:54:10.177Z,21.60
2023-05-10T16:56:55.888Z,21.50
2023-05-10T16:59:41.432Z,21.60
2023-05-10T17:02:27.098Z,21.60
2023-05-10T17:05:12.766Z,21.50
2023-05-10T17:07:58.323Z,21.50
2023-05-10T17:10:44.021Z,21.50
2023-05-10T17:13:29.993Z,21.50
2023-05-10T17:16:15.696Z,21.50
2023-05-10T17:19:01.473Z,21.50
2023-05-10T17:21:47.069Z,21.50
2023-05-10T17:24:33.828Z,21.50
2023-05-10T17:27:19.650Z,21.50
2023-05-10T17:30:05.953Z,21.50
2023-05-10T17:32:51.905Z,21.40
2023-05-10T17:35:37.725Z,21.50
2023-05-10T17:38:23.192Z,21.50
2023-05-10T17:41:08.958Z,21.50
2023-05-10T17:43:54.786Z,21.50
2023-05-10T17:46:40.661Z,21.40
2023-05-10T17:49:26.073Z,21.40
2023-05-10T17:52:11.886Z,21.30
2023-05-10T17:54:57.483Z,21.20
2023-05-10T17:57:42.798Z,25.00
2023-05-10T18:00:28.594Z,21.00
2023-05-10T18:03:14.160Z,21.00
2023-05-10T18:05:59.954Z,20.90
2023-05-10T18:08:45.569Z,20.80
2023-05-10T18:11:31.822Z,20.80
2023-05-10T18:14:31.979Z,20.80
2023-05-10T18:17:23.566Z,20.80
2023-05-10T18:20:09.561Z,19.30
2023-05-10T18:22:55.677Z,20.60
2023-05-10T18:25:41.369Z,20.70
2023-05-10T18:28:26.973Z,20.70
2023-05-10T18:31:12.883Z,20.70
2023-05-10T18:33:58.087Z,20.70
2023-05-10T18:36:43.892Z,20.70
2023-05-10T18:39:29.647Z,20.70
2023-05-10T18:42:14.988Z,20.60
2023-05-10T18:45:00.975Z,20.60
2023-05-10T18:47:46.417Z,20.60
2023-05-10T18:50:32.114Z,20.60
2023-05-10T18:53:17.393Z,20.60
2023-05-10T18:56:03.479Z,20.60
2023-05-10T18:58:48.960Z,20.60
2023-05-10T19:01:34.539Z,20.60
2023-05-10T19:04:20.242Z,20.60
2023-05-10T19:07:05.910Z,20.60
2023-05-10T19:09:51.343Z,20.60
2023-05-10T19:12:37.475Z,20.60
2023-05-10T19:15:23.366Z,20.60
2023-05-10T19:18:09.465Z,20.60
2023-05-10T19:20:56.360Z,20.60
2023-05-10T19:23:43.034Z,20.60
2023-05-10T19:26:28.685Z,20.60
2023-05-10T19:29:14.526Z,20.50
2023-05-10T19:32:00.545Z,20.50
2023-05-10T19:34:46.030Z,20.50
2023-05-10T19:37:31.650Z,20.50
2023-05-10T19:40:18.491Z,20.50
2023-05-10T19:43:04.258Z,20.40
2023-05-10T19:45:49.706Z,20.40
2023-05-10T19:48:35.540Z,20.40
2023-05-10T19:51:21.024Z,20.40
2023-05-10T19:54:06.444Z,20.40
2023-05-10T19:56:52.295Z,20.40
2023-05-10T19:59:37.868Z,20.40
2023-05-10T20:02:23.659Z,20.40
2023-05-10T20:05:09.318Z,20.40
2023-05-10T20:07:54.735Z,20.40
2023-05-10T20:10:40.190Z,20.10
2023-05-10T20:13:26.194Z,19.70
2023-05-10T20:16:12.274Z,19.30
2023-05-10T20:18:58.194Z,18.90
2023-05-10T20:21:43.778Z,18.70
2023-05-10T20:24:29.381Z,18.40
2023-05-10T20:27:14.886Z,18.30
2023-05-10T20:30:00.483Z,18.20
2023-05-10T20:32:45.859Z,18.10
2023-05-10T20:35:32.189Z,17.90
2023-05-10T20:38:18.207Z,17.80
2023-05-10T20:41:03.752Z,17.70
2023-05-10T20:43:49.544Z,17.70
2023-05-10T20:46:35.108Z,17.70
2023-05-10T20:49:20.770Z,17.60
2023-05-10T20:52:06.486Z,17.50
2023-05-10T20:54:52.038Z,17.50
2023-05-10T20:57:37.834Z,17.50
2023-05-10T21:00:23.546Z,17.40
2023-05-10T21:03:09.268Z,17.30
2023-05-10T21:05:54.878Z,17.20
2023-05-10T21:08:40.627Z,17.20
2023-05-10T21:11:26.167Z,17.30
2023-05-10T21:14:11.540Z,17.20
2023-05-10T21:16:57.262Z,17.10
2023-05-10T21:19:42.875Z,17.10
2023-05-10T21:22:28.301Z,17.10
2023-05-10T21:25:13.917Z,17.10
2023-05-10T21:27:59.632Z,17.10
2023-05-10T21:30:45.145Z,17.10
2023-05-10T21:33:30.944Z,17.10
2023-05-10T21:36:16.644Z,17.10
2023-05-10T21:39:03.280Z,17.10
2023-05-10T21:41:49.018Z,17.00
2023-05-10T21:44:34.889Z,17.00
2023-05-10T21:47:20.640Z,16.90
2023-05-10T21:50:06.812Z,16.90
2023-05-10T21:52:52.510Z,16.90
2023-05-10T21:55:38.249Z,16.80
2023-05-10T21:58:23.918Z,16.70
2023-05-10T22:01:09.744Z,16.70
2023-05-10T22:03:55.362Z,16.70
2023-05-10T22:06:41.369Z,16.80
2023-05-10T22:09:26.855Z,16.80
2023-05-10T22:12:12.686Z,16.80
2023-05-10T22:15:09.330Z,16.70
2023-05-10T22:17:56.087Z,16.70
2023-05-10T22:20:44.241Z,16.60
2023-05-10T22:23:30.300Z,16.60
2023-05-10T22:26:15.625Z,16.60
2023-05-10T22:29:01.264Z,16.50
2023-05-10T22:31:46.816Z,16.50
2023-05-10T22:34:32.889Z,16.50
2023-05-10T22:37:18.667Z,16.50
2023-05-10T22:40:04.352Z,16.40
2023-05-10T22:42:49.923Z,16.30
2023-05-10T22:45:35.594Z,16.50
2023-05-10T22:48:22.061Z,16.50
2023-05-10T22:51:07.790Z,16.50
2023-05-10T22:53:53.107Z,16.40
2023-05-10T22:56:38.790Z,16.40
2023-05-10T22:59:24.378Z,16.40
2023-05-10T23:02:10.151Z,16.40
2023-05-10T23:04:55.770Z,16.40
2023-05-10T23:07:41.324Z,16.50
2023-05-10T23:10:26.907Z,16.40
2023-05-10T23:13:12.288Z,16.40
2023-05-10T23:15:57.917Z,16.30
2023-05-10T23:18:43.759Z,16.30
2023-05-10T23:21:31.905Z,16.30
2023-05-10T23:24:17.714Z,16.30
2023-05-10T23:27:03.874Z,16.30
2023-05-10T23:29:52.436Z,16.40
2023-05-10T23:32:37.682Z,16.40
2023-05-10T23:35:23.443Z,16.30
2023-05-10T23:38:09.547Z,16.30
2023-05-10T23:40:55.297Z,16.30
2023-05-10T23:43:40.911Z,16.30
2023-05-10T23:46:26.703Z,16.20
2023-05-10T23:49:12.262Z,16.20
2023-05-10T23:51:57.850Z,16.40
2023-05-10T23:54:45.876Z,16.30
2023-05-10T23:57:31.802Z,16.30
